Page Municipal Airport Page US
ICAO: KPGA
IATA: PGA
Category: Medium
Scheduled Services: No

Elevation: 4316 ft
TransAlt. 18000 ft.

Airport Communications:
ASOS:120.625
DENVER CNTR:127.55
PRESCOTT RDO:122.45
CTAF/UNICOM:122.8

KPGA Zoom In..

If you have problems with the map follow the link
https://www.worldairports.se/pages/airport.php?
ICAO=KPGA

Runways:

(A) RW 07 length 2201 ft width 75 ft
---- / hdg 68

(B) RW 15 length 5950 ft width 150 ft
---- / hdg 156

(C) RW 25 length 2201 ft width 75 ft
---- / hdg 248

(D) RW 33 length 5950 ft width 150 ft
---- / hdg 336

Location; KPGA
Day. 22 / Time. 10.53 Zulu
* Altimeter: 30.09
* Temperature: 00° c. 32°f.
* Wind from: 100° Speed 03 kn.
Dewpoint: -01° c.
Visibility: 10 Statute Miles.
Clouds: Clear (automated report).

KPGA 221053Z AUTO 10003KT 10SM CLR 00/M01 A3009 RMK AO2 SLP191 I1000 T00001011 TSNO


Wind From 100°
Speed 03 kn.

 
 
jpsmedia worldairports.se 2020   terms of use